createdAt,value
2024-04-24T00:01:28.012Z,-1.00
2024-04-24T00:03:55.390Z,-0.90
2024-04-24T00:06:23.759Z,-0.80
2024-04-24T00:08:51.500Z,-0.70
2024-04-24T00:11:19.918Z,-0.70
2024-04-24T00:13:47.608Z,-0.80
2024-04-24T00:16:14.994Z,-0.90
2024-04-24T00:18:42.640Z,-1.10
2024-04-24T00:21:11.633Z,-1.30
2024-04-24T00:23:39.616Z,-1.30
2024-04-24T00:26:07.621Z,-1.30
2024-04-24T00:28:35.046Z,-1.20
2024-04-24T00:31:02.880Z,-1.00
2024-04-24T00:33:30.384Z,-0.90
2024-04-24T00:35:57.888Z,-1.00
2024-04-24T00:38:25.406Z,-1.30
2024-04-24T00:40:52.808Z,-1.40
2024-04-24T00:43:20.225Z,-1.40
2024-04-24T00:45:48.392Z,-1.40
2024-04-24T00:48:16.583Z,-1.30
2024-04-24T00:50:45.905Z,-1.30
2024-04-24T00:53:13.615Z,-1.20
2024-04-24T00:55:42.202Z,-1.20
2024-04-24T00:58:10.019Z,-1.10
2024-04-24T01:00:39.537Z,-1.10
2024-04-24T01:03:08.356Z,-1.00
2024-04-24T01:05:37.014Z,-1.10
2024-04-24T01:08:05.143Z,-1.20
2024-04-24T01:10:32.536Z,-1.10
2024-04-24T01:12:59.980Z,-1.20
2024-04-24T01:15:27.378Z,-1.30
2024-04-24T01:17:57.351Z,-1.30
2024-04-24T01:20:28.445Z,-1.40
2024-04-24T01:23:10.702Z,-1.50
2024-04-24T01:26:10.977Z,-1.50
2024-04-24T01:28:38.938Z,-1.50
2024-04-24T01:31:06.781Z,-1.60
2024-04-24T01:33:34.757Z,-1.50
2024-04-24T01:36:02.132Z,-1.50
2024-04-24T01:38:29.815Z,-1.60
2024-04-24T01:40:57.408Z,-1.70
2024-04-24T01:43:24.780Z,-1.60
2024-04-24T01:45:52.408Z,-1.60
2024-04-24T01:48:19.797Z,-1.60
2024-04-24T01:50:47.706Z,-1.60
2024-04-24T01:53:15.285Z,-1.60
2024-04-24T01:55:42.650Z,-1.50
2024-04-24T01:58:10.014Z,-1.50
2024-04-24T02:00:37.719Z,-1.40
2024-04-24T02:03:05.315Z,-1.40
2024-04-24T02:05:32.716Z,-1.40
2024-04-24T02:08:00.152Z,-1.50
2024-04-24T02:10:27.544Z,-1.50
2024-04-24T02:12:54.957Z,-1.50
2024-04-24T02:15:22.322Z,-1.60
2024-04-24T02:17:49.819Z,-1.70
2024-04-24T02:20:17.404Z,-1.90
2024-04-24T02:22:45.232Z,-1.90
2024-04-24T02:25:31.816Z,-1.90
2024-04-24T02:27:59.289Z,-2.00
2024-04-24T02:30:26.697Z,-1.90
2024-04-24T02:32:54.154Z,-1.90
2024-04-24T02:35:22.226Z,-2.00
2024-04-24T02:37:49.605Z,-1.90
2024-04-24T02:40:17.162Z,-1.80
2024-04-24T02:42:44.977Z,-1.90
2024-04-24T02:45:12.337Z,-1.80
2024-04-24T02:47:39.757Z,-1.80
2024-04-24T02:50:07.267Z,-1.90
2024-04-24T02:52:35.505Z,-2.10
2024-04-24T02:55:02.861Z,-2.20
2024-04-24T02:57:30.312Z,-2.30
2024-04-24T02:59:57.624Z,-2.40
2024-04-24T03:02:25.032Z,-2.30
2024-04-24T03:04:52.466Z,-2.30
2024-04-24T03:07:19.853Z,-2.20
2024-04-24T03:09:47.238Z,-2.30
2024-04-24T03:12:14.718Z,-2.40
2024-04-24T03:14:42.101Z,-2.30
2024-04-24T03:17:10.121Z,-2.30
2024-04-24T03:19:38.770Z,-2.40
2024-04-24T03:22:06.151Z,-2.40
2024-04-24T03:24:33.818Z,-2.50
2024-04-24T03:27:01.244Z,-2.40
2024-04-24T03:29:28.796Z,-2.50
2024-04-24T03:31:56.272Z,-2.40
2024-04-24T03:34:24.769Z,-2.30
2024-04-24T03:36:52.650Z,-2.20
2024-04-24T03:39:19.961Z,-2.30
2024-04-24T03:41:47.746Z,-2.30
2024-04-24T03:44:15.180Z,-2.30
2024-04-24T03:46:42.788Z,-2.20
2024-04-24T03:49:10.341Z,-2.20
2024-04-24T03:51:37.693Z,-2.20
2024-04-24T03:54:05.105Z,-2.20
2024-04-24T03:56:32.464Z,-2.20
2024-04-24T03:59:00.180Z,-2.10
2024-04-24T04:01:29.121Z,-2.20
2024-04-24T04:03:57.606Z,-2.10
2024-04-24T04:06:26.772Z,-2.10
2024-04-24T04:08:54.119Z,-2.10
2024-04-24T04:11:21.589Z,-2.10
2024-04-24T04:13:48.990Z,-2.20
2024-04-24T04:16:16.350Z,-2.20
2024-04-24T04:18:43.810Z,-2.20
2024-04-24T04:21:13.512Z,-2.10
2024-04-24T04:23:41.065Z,-2.10
2024-04-24T04:26:08.516Z,-2.10
2024-04-24T04:28:36.339Z,-2.10
2024-04-24T04:31:03.810Z,-2.00
2024-04-24T04:33:31.430Z,-1.80
2024-04-24T04:35:59.248Z,-1.80
2024-04-24T04:38:26.648Z,-1.70
2024-04-24T04:40:54.021Z,-1.70
2024-04-24T04:43:23.598Z,-1.70
2024-04-24T04:45:51.468Z,-1.60
2024-04-24T04:48:19.046Z,-1.50
2024-04-24T04:50:46.511Z,-1.50
2024-04-24T04:53:14.103Z,-1.50
2024-04-24T04:55:41.454Z,-1.40
2024-04-24T04:58:08.850Z,-1.40
2024-04-24T05:00:36.267Z,-1.40
2024-04-24T05:03:03.708Z,-1.30
2024-04-24T05:05:31.521Z,-1.20
2024-04-24T05:07:58.920Z,-1.10
2024-04-24T05:10:26.269Z,-1.00
2024-04-24T05:12:53.870Z,-0.90
2024-04-24T05:15:21.206Z,-0.70
2024-04-24T05:17:48.832Z,-0.50
2024-04-24T05:20:16.285Z,-0.40
2024-04-24T05:22:51.917Z,-0.30
2024-04-24T05:25:20.230Z,-0.10
2024-04-24T05:28:06.560Z,0.10
2024-04-24T05:30:35.136Z,0.10
2024-04-24T05:33:04.316Z,0.20
2024-04-24T05:35:34.502Z,0.80
2024-04-24T05:38:01.924Z,1.20
2024-04-24T05:40:29.287Z,1.30
2024-04-24T05:42:56.626Z,1.40
2024-04-24T05:45:23.936Z,2.20
2024-04-24T05:47:51.430Z,4.20
2024-04-24T05:50:20.031Z,6.30
2024-04-24T05:52:47.478Z,7.80
2024-04-24T05:55:14.932Z,8.70
2024-04-24T05:57:42.308Z,8.90
2024-04-24T06:00:10.211Z,9.30
2024-04-24T06:02:37.676Z,10.30
2024-04-24T06:05:05.635Z,11.00
2024-04-24T06:07:33.546Z,11.30
2024-04-24T06:10:01.004Z,10.90
2024-04-24T06:12:28.346Z,10.60
2024-04-24T06:14:55.728Z,11.00
2024-04-24T06:17:23.146Z,11.10
2024-04-24T06:19:50.515Z,11.40
2024-04-24T06:22:17.904Z,10.80
2024-04-24T06:24:45.246Z,11.40
2024-04-24T06:27:12.612Z,12.20
2024-04-24T06:29:41.584Z,12.00
2024-04-24T06:32:09.036Z,12.30
2024-04-24T06:34:37.066Z,12.30
2024-04-24T06:37:04.621Z,12.10
2024-04-24T06:39:32.711Z,12.10
2024-04-24T06:42:00.075Z,12.40
2024-04-24T06:44:28.676Z,11.70
2024-04-24T06:46:56.401Z,11.80
2024-04-24T06:49:23.766Z,12.20
2024-04-24T06:51:52.012Z,11.80
2024-04-24T06:54:19.322Z,11.40
2024-04-24T06:56:47.398Z,10.00
2024-04-24T06:59:14.888Z,8.70
2024-04-24T07:01:42.662Z,7.90
2024-04-24T07:04:10.130Z,7.60
2024-04-24T07:06:37.485Z,7.10
2024-04-24T07:09:05.430Z,8.30
2024-04-24T07:11:33.265Z,8.50
2024-04-24T07:14:00.773Z,9.50
2024-04-24T07:16:30.081Z,10.60
2024-04-24T07:18:57.781Z,11.40
2024-04-24T07:21:26.899Z,11.40
2024-04-24T07:23:54.364Z,10.70
2024-04-24T07:26:21.785Z,10.30
2024-04-24T07:28:50.188Z,11.00
2024-04-24T07:31:17.620Z,11.40
2024-04-24T07:33:45.046Z,11.70
2024-04-24T07:36:12.512Z,11.80
2024-04-24T07:38:40.011Z,11.30
2024-04-24T07:41:09.246Z,10.70
2024-04-24T07:43:37.347Z,10.00
2024-04-24T07:46:06.724Z,9.30
2024-04-24T07:48:35.309Z,8.80
2024-04-24T07:51:02.721Z,8.50
2024-04-24T07:53:32.267Z,7.90
2024-04-24T07:56:00.788Z,7.70
2024-04-24T07:58:33.034Z,7.70
2024-04-24T08:01:01.321Z,7.60
2024-04-24T08:03:28.777Z,7.70
2024-04-24T08:05:56.576Z,7.60
2024-04-24T08:08:24.603Z,7.60
2024-04-24T08:10:52.775Z,7.40
2024-04-24T08:13:20.841Z,7.20
2024-04-24T08:15:56.143Z,7.00
2024-04-24T08:18:23.630Z,7.10
2024-04-24T08:20:51.236Z,7.10
2024-04-24T08:23:23.983Z,7.40
2024-04-24T08:25:54.355Z,7.30
2024-04-24T08:28:32.574Z,7.50
2024-04-24T08:31:06.060Z,7.70
2024-04-24T08:33:34.123Z,7.70
2024-04-24T08:36:13.170Z,7.50
2024-04-24T08:38:41.110Z,7.50
2024-04-24T08:41:09.170Z,7.60
2024-04-24T08:43:38.550Z,7.70
2024-04-24T08:46:07.524Z,7.60
2024-04-24T08:48:43.386Z,7.40
2024-04-24T08:51:12.689Z,7.20
2024-04-24T08:53:50.621Z,6.80
2024-04-24T08:56:21.674Z,6.80
2024-04-24T08:58:53.140Z,6.90
2024-04-24T09:01:23.129Z,6.70
2024-04-24T09:04:03.381Z,6.50
2024-04-24T09:06:31.618Z,6.40
2024-04-24T09:08:59.517Z,6.40
2024-04-24T09:11:27.388Z,6.60
2024-04-24T09:13:55.664Z,6.60
2024-04-24T09:16:23.512Z,6.70
2024-04-24T09:19:04.171Z,6.80
2024-04-24T09:21:33.399Z,7.00
2024-04-24T09:24:00.826Z,6.90
2024-04-24T09:26:28.808Z,7.00
2024-04-24T09:28:56.542Z,6.90
2024-04-24T09:31:24.212Z,6.70
2024-04-24T09:33:52.580Z,6.50
2024-04-24T09:36:19.963Z,6.50
2024-04-24T09:38:47.873Z,6.50
2024-04-24T09:41:15.793Z,6.20
2024-04-24T09:43:43.575Z,6.20
2024-04-24T09:46:11.050Z,6.30
2024-04-24T09:48:38.618Z,6.20
2024-04-24T09:51:11.142Z,6.30
2024-04-24T09:53:39.311Z,6.40
2024-04-24T09:56:24.216Z,6.20
2024-04-24T09:58:56.258Z,6.10
2024-04-24T10:01:24.814Z,5.90
2024-04-24T10:03:56.047Z,6.00
2024-04-24T10:06:24.578Z,6.20
2024-04-24T10:08:55.530Z,6.40
2024-04-24T10:11:40.781Z,6.50
2024-04-24T10:14:12.137Z,6.60
2024-04-24T10:16:40.079Z,6.80
2024-04-24T10:19:08.055Z,7.00
2024-04-24T10:21:36.603Z,6.90
2024-04-24T10:24:06.486Z,6.50
2024-04-24T10:26:35.126Z,6.40
2024-04-24T10:29:03.159Z,6.50
2024-04-24T10:31:30.603Z,6.80
2024-04-24T10:33:59.032Z,7.00
2024-04-24T10:36:27.894Z,7.30
2024-04-24T10:38:56.302Z,7.70
2024-04-24T10:41:23.940Z,7.80
2024-04-24T10:43:51.410Z,7.60
2024-04-24T10:46:20.840Z,7.60
2024-04-24T10:48:59.961Z,7.40
2024-04-24T10:51:32.249Z,7.10
2024-04-24T10:54:17.648Z,6.80
2024-04-24T10:56:49.247Z,6.30
2024-04-24T10:59:17.794Z,6.00
2024-04-24T11:01:53.278Z,5.90
2024-04-24T11:04:25.931Z,5.60
2024-04-24T11:06:53.630Z,5.50
2024-04-24T11:09:24.955Z,5.30
2024-04-24T11:11:55.054Z,5.30
2024-04-24T11:14:22.732Z,5.40
2024-04-24T11:16:57.452Z,5.30
2024-04-24T11:19:25.329Z,5.40
2024-04-24T11:21:52.730Z,5.50
2024-04-24T11:24:31.000Z,5.70
2024-04-24T11:26:58.982Z,5.60
2024-04-24T11:29:26.502Z,5.50
2024-04-24T11:31:56.671Z,5.60
2024-04-24T11:34:24.614Z,5.70
2024-04-24T11:36:52.186Z,5.50
2024-04-24T11:39:22.104Z,5.60
2024-04-24T11:41:51.333Z,5.70
2024-04-24T11:44:19.189Z,5.70
2024-04-24T11:46:48.763Z,5.70
2024-04-24T11:49:20.120Z,5.80
2024-04-24T11:51:50.947Z,5.80
2024-04-24T11:54:18.357Z,5.90
2024-04-24T11:56:46.869Z,6.10
2024-04-24T11:59:18.763Z,6.40
2024-04-24T12:01:46.821Z,6.50
2024-04-24T12:04:14.591Z,6.80
2024-04-24T12:06:43.856Z,6.90
2024-04-24T12:09:12.302Z,7.00
2024-04-24T12:11:44.737Z,7.10
2024-04-24T12:14:14.848Z,6.90
2024-04-24T12:16:43.131Z,6.50
2024-04-24T12:19:12.139Z,6.40
2024-04-24T12:21:39.985Z,5.90
2024-04-24T12:24:08.970Z,5.70
2024-04-24T12:26:36.665Z,5.50
2024-04-24T12:29:04.153Z,5.50
2024-04-24T12:31:31.831Z,5.60
2024-04-24T12:33:59.439Z,5.80
2024-04-24T12:36:26.899Z,5.80
2024-04-24T12:38:54.275Z,5.90
2024-04-24T12:41:21.670Z,6.30
2024-04-24T12:43:49.150Z,6.50
2024-04-24T12:46:16.477Z,6.90
2024-04-24T12:48:43.949Z,7.30
2024-04-24T12:51:11.500Z,7.60
2024-04-24T12:53:38.854Z,7.40
2024-04-24T12:56:09.317Z,7.40
2024-04-24T12:58:36.774Z,7.50
2024-04-24T13:01:04.760Z,7.70
2024-04-24T13:03:32.225Z,8.00
2024-04-24T13:05:59.658Z,8.40
2024-04-24T13:08:27.265Z,8.10
2024-04-24T13:10:54.731Z,7.90
2024-04-24T13:13:22.245Z,8.40
2024-04-24T13:15:52.213Z,8.40
2024-04-24T13:18:21.920Z,8.30
2024-04-24T13:20:50.111Z,8.40
2024-04-24T13:23:17.495Z,8.60
2024-04-24T13:25:44.967Z,9.40
2024-04-24T13:28:12.800Z,9.60
2024-04-24T13:30:40.147Z,9.40
2024-04-24T13:33:07.597Z,9.30
2024-04-24T13:35:36.999Z,9.20
2024-04-24T13:38:04.561Z,9.60
2024-04-24T13:40:32.261Z,9.50
2024-04-24T13:42:59.663Z,9.40
2024-04-24T13:45:26.999Z,9.50
2024-04-24T13:47:55.597Z,9.30
2024-04-24T13:50:23.144Z,8.80
2024-04-24T13:52:52.552Z,8.60
2024-04-24T13:55:20.510Z,8.70
2024-04-24T13:57:48.004Z,8.60
2024-04-24T14:00:15.487Z,8.40
2024-04-24T14:02:42.996Z,8.20
2024-04-24T14:05:12.747Z,7.90
2024-04-24T14:07:40.123Z,7.90
2024-04-24T14:10:07.800Z,7.70
2024-04-24T14:12:35.180Z,6.80
2024-04-24T14:15:02.579Z,6.60
2024-04-24T14:17:31.116Z,6.30
2024-04-24T14:19:58.766Z,6.30
2024-04-24T14:22:26.388Z,6.50
2024-04-24T14:24:53.802Z,6.40
2024-04-24T14:27:21.791Z,6.00
2024-04-24T14:29:50.175Z,5.60
2024-04-24T14:32:17.653Z,5.00
2024-04-24T14:34:46.258Z,4.30
2024-04-24T14:37:13.729Z,3.70
2024-04-24T14:39:41.429Z,3.60
2024-04-24T14:42:08.741Z,3.50
2024-04-24T14:44:36.142Z,3.60
2024-04-24T14:47:03.862Z,3.90
2024-04-24T14:49:31.321Z,4.80
2024-04-24T14:51:58.767Z,5.60
2024-04-24T14:54:26.165Z,6.30
2024-04-24T14:56:53.520Z,6.50
2024-04-24T14:59:21.384Z,6.30
2024-04-24T15:01:51.070Z,6.60
2024-04-24T15:04:19.404Z,6.70
2024-04-24T15:07:08.628Z,7.00
2024-04-24T15:09:36.375Z,7.20
2024-04-24T15:12:04.004Z,7.30
2024-04-24T15:14:31.776Z,6.70
2024-04-24T15:16:59.423Z,6.20
2024-04-24T15:19:27.228Z,6.10
2024-04-24T15:21:56.123Z,6.00
2024-04-24T15:24:24.652Z,5.90
2024-04-24T15:26:52.081Z,6.40
2024-04-24T15:29:19.438Z,6.70
2024-04-24T15:31:46.820Z,7.10
2024-04-24T15:34:15.883Z,6.90
2024-04-24T15:36:43.657Z,6.90
2024-04-24T15:39:11.150Z,7.30
2024-04-24T15:41:39.432Z,7.60
2024-04-24T15:44:07.415Z,7.60
2024-04-24T15:46:34.723Z,7.80
2024-04-24T15:49:02.090Z,7.50
2024-04-24T15:51:29.536Z,7.00
2024-04-24T15:53:56.882Z,6.60
2024-04-24T15:56:24.278Z,6.30
2024-04-24T15:58:52.084Z,6.20
2024-04-24T16:01:20.126Z,6.30
2024-04-24T16:03:47.525Z,5.90
2024-04-24T16:06:19.404Z,5.60
2024-04-24T16:08:47.005Z,5.50
2024-04-24T16:11:14.405Z,5.50
2024-04-24T16:13:41.833Z,5.20
2024-04-24T16:16:09.206Z,5.10
2024-04-24T16:18:43.045Z,4.90
2024-04-24T16:21:14.385Z,4.80
2024-04-24T16:23:41.871Z,4.90
2024-04-24T16:26:09.324Z,5.00
2024-04-24T16:28:36.959Z,5.30
2024-04-24T16:31:04.558Z,5.30
2024-04-24T16:33:32.097Z,5.20
2024-04-24T16:35:59.897Z,5.40
2024-04-24T16:38:27.440Z,5.40
2024-04-24T16:40:54.851Z,5.30
2024-04-24T16:43:24.094Z,5.10
2024-04-24T16:45:51.581Z,5.10
2024-04-24T16:48:20.381Z,5.00
2024-04-24T16:50:47.914Z,4.90
2024-04-24T16:53:15.316Z,4.70
2024-04-24T16:55:43.871Z,4.70
2024-04-24T16:58:11.219Z,4.60
2024-04-24T17:00:38.655Z,4.60
2024-04-24T17:03:06.250Z,4.60
2024-04-24T17:05:33.659Z,4.40
2024-04-24T17:08:01.017Z,4.30
2024-04-24T17:10:28.415Z,4.30
2024-04-24T17:12:56.011Z,4.40
2024-04-24T17:15:23.463Z,4.50
2024-04-24T17:17:50.930Z,4.50
2024-04-24T17:20:18.501Z,4.60
2024-04-24T17:22:46.475Z,4.60
2024-04-24T17:25:14.945Z,4.60
2024-04-24T17:27:45.412Z,4.50
2024-04-24T17:30:13.209Z,4.40
2024-04-24T17:32:41.247Z,4.30
2024-04-24T17:35:08.828Z,4.20
2024-04-24T17:37:36.512Z,4.20
2024-04-24T17:40:03.965Z,4.20
2024-04-24T17:42:31.417Z,4.10
2024-04-24T17:44:58.836Z,4.10
2024-04-24T17:47:27.411Z,4.00
2024-04-24T17:49:55.424Z,4.10
2024-04-24T17:52:23.319Z,4.00
2024-04-24T17:54:50.684Z,4.00
2024-04-24T17:57:18.051Z,4.00
2024-04-24T17:59:45.519Z,4.10
2024-04-24T18:02:12.991Z,4.10
2024-04-24T18:04:40.712Z,4.00
2024-04-24T18:07:08.099Z,3.90
2024-04-24T18:09:35.538Z,3.80
2024-04-24T18:12:03.204Z,3.80
2024-04-24T18:14:30.957Z,3.70
2024-04-24T18:16:58.765Z,3.60
2024-04-24T18:19:26.678Z,3.60
2024-04-24T18:21:54.008Z,3.40
2024-04-24T18:24:24.427Z,3.40
2024-04-24T18:26:51.837Z,3.30
2024-04-24T18:29:19.567Z,3.20
2024-04-24T18:31:46.941Z,3.20
2024-04-24T18:34:16.211Z,3.10
2024-04-24T18:36:44.129Z,3.00
2024-04-24T18:39:11.529Z,2.90
2024-04-24T18:41:38.928Z,2.90
2024-04-24T18:44:07.705Z,2.80
2024-04-24T18:46:35.109Z,2.70
2024-04-24T18:49:02.704Z,2.60
2024-04-24T18:51:30.226Z,2.50
2024-04-24T18:53:58.694Z,2.40
2024-04-24T18:56:26.708Z,2.30
2024-04-24T18:58:54.222Z,2.30
2024-04-24T19:01:23.223Z,2.10
2024-04-24T19:03:50.793Z,2.00
2024-04-24T19:06:18.160Z,2.00
2024-04-24T19:08:46.170Z,1.90
2024-04-24T19:11:13.664Z,1.90
2024-04-24T19:13:41.083Z,1.80
2024-04-24T19:16:08.880Z,1.70
2024-04-24T19:18:36.335Z,1.50
2024-04-24T19:21:06.498Z,1.40
2024-04-24T19:23:34.201Z,1.40
2024-04-24T19:26:01.587Z,1.20
2024-04-24T19:28:28.923Z,1.10
2024-04-24T19:30:56.250Z,1.10
2024-04-24T19:33:23.638Z,1.10
2024-04-24T19:35:53.523Z,1.00
2024-04-24T19:38:23.249Z,0.80
2024-04-24T19:40:50.650Z,0.70
2024-04-24T19:43:17.991Z,0.60
2024-04-24T19:45:46.624Z,0.60
2024-04-24T19:48:15.846Z,0.60
2024-04-24T19:50:43.750Z,0.60
2024-04-24T19:53:11.341Z,0.60
2024-04-24T19:55:39.332Z,0.60
2024-04-24T19:58:06.681Z,0.60
2024-04-24T20:00:34.155Z,0.70
2024-04-24T20:03:02.558Z,0.70
2024-04-24T20:05:30.061Z,0.80
2024-04-24T20:07:57.471Z,0.90
2024-04-24T20:10:24.805Z,0.90
2024-04-24T20:12:52.122Z,1.00
2024-04-24T20:15:19.500Z,1.10
2024-04-24T20:17:46.883Z,1.20
2024-04-24T20:20:14.835Z,1.20
2024-04-24T20:22:45.824Z,1.40
2024-04-24T20:25:13.741Z,1.50
2024-04-24T20:27:41.554Z,1.50
2024-04-24T20:30:09.354Z,1.40
2024-04-24T20:32:36.801Z,1.30
2024-04-24T20:35:04.724Z,1.30
2024-04-24T20:37:32.307Z,1.30
2024-04-24T20:39:59.656Z,1.20
2024-04-24T20:42:27.459Z,1.20
2024-04-24T20:44:57.678Z,1.10
2024-04-24T20:47:25.096Z,1.10
2024-04-24T20:49:52.521Z,1.10
2024-04-24T20:52:19.856Z,1.00
2024-04-24T20:54:47.311Z,0.90
2024-04-24T20:57:14.839Z,0.90
2024-04-24T20:59:42.442Z,0.80
2024-04-24T21:02:12.577Z,0.80
2024-04-24T21:04:40.130Z,0.70
2024-04-24T21:07:07.563Z,0.60
2024-04-24T21:09:37.497Z,0.50
2024-04-24T21:12:05.138Z,0.50
2024-04-24T21:14:32.876Z,0.40
2024-04-24T21:17:00.679Z,0.40
2024-04-24T21:19:28.201Z,0.40
2024-04-24T21:21:56.080Z,0.50
2024-04-24T21:24:24.176Z,0.50
2024-04-24T21:26:51.842Z,0.50
2024-04-24T21:29:19.270Z,0.40
2024-04-24T21:31:47.487Z,0.50
2024-04-24T21:34:15.187Z,0.40
2024-04-24T21:36:42.611Z,0.50
2024-04-24T21:39:11.920Z,0.60
2024-04-24T21:41:39.386Z,0.60
2024-04-24T21:44:06.788Z,0.60
2024-04-24T21:46:34.242Z,0.70
2024-04-24T21:49:01.658Z,0.80
2024-04-24T21:51:29.274Z,0.80
2024-04-24T21:53:58.152Z,0.80
2024-04-24T21:56:25.920Z,0.80
2024-04-24T21:58:56.429Z,0.80
2024-04-24T22:01:23.977Z,0.80
2024-04-24T22:03:51.536Z,0.80
2024-04-24T22:06:21.759Z,0.90
2024-04-24T22:08:49.360Z,0.90
2024-04-24T22:11:16.850Z,0.90
2024-04-24T22:13:44.398Z,0.90
2024-04-24T22:16:12.552Z,0.90
2024-04-24T22:18:40.750Z,0.90
2024-04-24T22:21:08.229Z,0.90
2024-04-24T22:23:35.701Z,0.90
2024-04-24T22:26:03.192Z,0.90
2024-04-24T22:28:30.566Z,0.90
2024-04-24T22:30:57.910Z,0.90
2024-04-24T22:33:26.121Z,0.90
2024-04-24T22:35:53.678Z,0.90
2024-04-24T22:38:21.071Z,0.90
2024-04-24T22:40:48.403Z,0.90
2024-04-24T22:43:15.769Z,0.80
2024-04-24T22:45:43.149Z,0.80
2024-04-24T22:48:10.556Z,0.80
2024-04-24T22:50:38.050Z,0.80
2024-04-24T22:53:05.665Z,0.80
2024-04-24T22:55:34.716Z,0.70
2024-04-24T22:58:02.135Z,0.70
2024-04-24T23:00:29.582Z,0.70
2024-04-24T23:02:57.559Z,0.70
2024-04-24T23:05:25.046Z,0.70
2024-04-24T23:07:52.452Z,0.70
2024-04-24T23:10:19.802Z,0.70
2024-04-24T23:12:47.159Z,0.70
2024-04-24T23:15:14.612Z,0.80
2024-04-24T23:17:42.095Z,0.80
2024-04-24T23:20:09.878Z,0.80
2024-04-24T23:22:37.298Z,0.80
2024-04-24T23:25:05.296Z,0.90
2024-04-24T23:27:32.611Z,0.80
2024-04-24T23:30:00.811Z,0.80
2024-04-24T23:32:28.204Z,0.80
2024-04-24T23:34:55.561Z,0.80
2024-04-24T23:37:22.915Z,0.80
2024-04-24T23:39:50.251Z,0.80
2024-04-24T23:42:17.592Z,0.70
2024-04-24T23:44:44.955Z,0.60
2024-04-24T23:47:12.376Z,0.60
2024-04-24T23:49:39.775Z,0.50
2024-04-24T23:52:07.057Z,0.60
2024-04-24T23:54:34.545Z,0.50
2024-04-24T23:57:01.999Z,0.50
2024-04-24T23:59:29.580Z,0.50
